sensor_id;sensor_type;location;lat;lon;timestamp;pressure;altitude;pressure_sealevel;temperature;humidity
10638;BME280;47007;49.252;8.904;2023-06-26T00:00:27;99676.63;;;19.41;100.00
10638;BME280;47007;49.252;8.904;2023-06-26T00:01:09;99677.19;;;19.43;100.00
10638;BME280;47007;49.252;8.904;2023-06-26T00:01:54;99674.28;;;19.45;100.00
10638;BME280;47007;49.252;8.904;2023-06-26T00:02:35;99659.03;;;19.33;100.00
10638;BME280;47007;49.252;8.904;2023-06-26T00:03:17;99675.09;;;19.45;100.00
10638;BME280;47007;49.252;8.904;2023-06-26T00:04:00;99674.59;;;19.48;100.00
10638;BME280;47007;49.252;8.904;2023-06-26T00:04:43;99676.47;;;19.48;100.00
10638;BME280;47007;49.252;8.904;2023-06-26T00:05:25;99683.28;;;19.50;100.00
10638;BME280;47007;49.252;8.904;2023-06-26T00:06:09;99682.81;;;19.53;100.00
10638;BME280;47007;49.252;8.904;2023-06-26T00:06:51;99675.28;;;19.55;100.00
10638;BME280;47007;49.252;8.904;2023-06-26T00:07:32;99685.56;;;19.58;100.00
10638;BME280;47007;49.252;8.904;2023-06-26T00:08:17;99670.41;;;19.52;100.00
10638;BME280;47007;49.252;8.904;2023-06-26T00:09:00;99683.34;;;19.55;100.00
10638;BME280;47007;49.252;8.904;2023-06-26T00:09:42;99672.03;;;19.53;100.00
10638;BME280;47007;49.252;8.904;2023-06-26T00:10:24;99677.28;;;19.48;100.00
10638;BME280;47007;49.252;8.904;2023-06-26T00:11:05;99672.03;;;19.53;100.00
10638;BME280;47007;49.252;8.904;2023-06-26T00:11:47;99670.41;;;19.52;100.00
10638;BME280;47007;49.252;8.904;2023-06-26T00:12:29;99670.47;;;19.57;100.00
10638;BME280;47007;49.252;8.904;2023-06-26T00:13:11;99669.91;;;19.55;100.00
10638;BME280;47007;49.252;8.904;2023-06-26T00:13:54;99669.19;;;19.60;100.00
10638;BME280;47007;49.252;8.904;2023-06-26T00:14:35;99668.84;;;19.56;100.00
10638;BME280;47007;49.252;8.904;2023-06-26T00:15:17;99672.09;;;19.58;100.00
10638;BME280;47007;49.252;8.904;2023-06-26T00:15:59;99659.66;;;19.52;100.00
10638;BME280;47007;49.252;8.904;2023-06-26T00:16:44;99669.41;;;19.58;100.00
10638;BME280;47007;49.252;8.904;2023-06-26T00:17:26;99652.28;;;19.48;100.00
10638;BME280;47007;49.252;8.904;2023-06-26T00:18:08;99672.34;;;19.57;100.00
10638;BME280;47007;49.252;8.904;2023-06-26T00:18:49;99672.59;;;19.55;100.00
10638;BME280;47007;49.252;8.904;2023-06-26T00:19:31;99668.28;;;19.54;100.00
10638;BME280;47007;49.252;8.904;2023-06-26T00:20:13;99673.66;;;19.54;100.00
10638;BME280;47007;49.252;8.904;2023-06-26T00:20:56;99672.84;;;19.54;100.00
10638;BME280;47007;49.252;8.904;2023-06-26T00:21:37;99673.09;;;19.52;100.00
10638;BME280;47007;49.252;8.904;2023-06-26T00:22:21;99672.84;;;19.54;100.00
10638;BME280;47007;49.252;8.904;2023-06-26T00:23:02;99676.59;;;19.53;100.00
10638;BME280;47007;49.252;8.904;2023-06-26T00:23:49;99676.72;;;19.46;100.00
10638;BME280;47007;49.252;8.904;2023-06-26T00:24:30;99672.81;;;19.37;100.00
10638;BME280;47007;49.252;8.904;2023-06-26T00:25:12;99678.91;;;19.32;100.00
10638;BME280;47007;49.252;8.904;2023-06-26T00:25:54;99671.84;;;19.26;100.00
10638;BME280;47007;49.252;8.904;2023-06-26T00:26:37;99678.50;;;19.24;100.00
10638;BME280;47007;49.252;8.904;2023-06-26T00:27:18;99678.50;;;19.24;100.00
10638;BME280;47007;49.252;8.904;2023-06-26T00:28:00;99667.44;;;19.20;100.00
10638;BME280;47007;49.252;8.904;2023-06-26T00:28:42;99685.53;;;19.25;100.00
10638;BME280;47007;49.252;8.904;2023-06-26T00:29:24;99681.78;;;19.26;100.00
10638;BME280;47007;49.252;8.904;2023-06-26T00:30:06;99678.50;;;19.24;100.00
10638;BME280;47007;49.252;8.904;2023-06-26T00:30:49;99680.16;;;19.25;100.00
10638;BME280;47007;49.252;8.904;2023-06-26T00:31:31;99684.69;;;19.24;100.00
10638;BME280;47007;49.252;8.904;2023-06-26T00:32:15;99675.00;;;19.23;100.00
10638;BME280;47007;49.252;8.904;2023-06-26T00:32:57;99678.75;;;19.22;100.00
10638;BME280;47007;49.252;8.904;2023-06-26T00:33:39;99683.47;;;19.15;100.00
10638;BME280;47007;49.252;8.904;2023-06-26T00:34:21;99671.22;;;19.08;100.00
10638;BME280;47007;49.252;8.904;2023-06-26T00:35:03;99677.53;;;19.13;100.00
10638;BME280;47007;49.252;8.904;2023-06-26T00:35:45;99682.09;;;19.13;100.00
10638;BME280;47007;49.252;8.904;2023-06-26T00:36:26;99675.78;;;19.07;100.00
10638;BME280;47007;49.252;8.904;2023-06-26T00:37:08;99678.25;;;19.09;100.00
10638;BME280;47007;49.252;8.904;2023-06-26T00:37:50;99667.78;;;18.95;100.00
10638;BME280;47007;49.252;8.904;2023-06-26T00:38:31;99685.78;;;18.95;100.00
10638;BME280;47007;49.252;8.904;2023-06-26T00:39:13;99662.97;;;18.81;100.00
10638;BME280;47007;49.252;8.904;2023-06-26T00:39:55;99677.19;;;18.81;100.00
10638;BME280;47007;49.252;8.904;2023-06-26T00:40:37;99668.25;;;18.76;100.00
10638;BME280;47007;49.252;8.904;2023-06-26T00:41:19;99673.47;;;18.82;100.00
10638;BME280;47007;49.252;8.904;2023-06-26T00:42:01;99662.66;;;18.77;100.00
10638;BME280;47007;49.252;8.904;2023-06-26T00:42:42;99664.28;;;18.78;100.00
10638;BME280;47007;49.252;8.904;2023-06-26T00:43:24;99663.47;;;18.78;100.00
10638;BME280;47007;49.252;8.904;2023-06-26T00:44:06;99664.00;;;18.80;100.00
10638;BME280;47007;49.252;8.904;2023-06-26T00:44:48;99661.47;;;18.73;100.00
10638;BME280;47007;49.252;8.904;2023-06-26T00:45:30;99663.13;;;18.74;100.00
10638;BME280;47007;49.252;8.904;2023-06-26T00:46:24;99664.41;;;18.72;100.00
10638;BME280;47007;49.252;8.904;2023-06-26T00:47:06;99661.66;;;18.67;100.00
10638;BME280;47007;49.252;8.904;2023-06-26T00:47:48;99640.72;;;18.57;100.00
10638;BME280;47007;49.252;8.904;2023-06-26T00:48:30;99653.00;;;18.64;100.00
10638;BME280;47007;49.252;8.904;2023-06-26T00:49:12;99660.31;;;18.69;100.00
10638;BME280;47007;49.252;8.904;2023-06-26T00:49:54;99654.47;;;18.72;100.00
10638;BME280;47007;49.252;8.904;2023-06-26T00:50:36;99652.38;;;18.74;100.00
10638;BME280;47007;49.252;8.904;2023-06-26T00:51:19;99653.84;;;18.82;100.00
10638;BME280;47007;49.252;8.904;2023-06-26T00:52:01;99658.75;;;18.85;100.00
10638;BME280;47007;49.252;8.904;2023-06-26T00:52:46;99647.66;;;18.81;100.00
10638;BME280;47007;49.252;8.904;2023-06-26T00:53:28;99650.09;;;18.83;100.00
10638;BME280;47007;49.252;8.904;2023-06-26T00:54:10;99660.72;;;18.89;100.00
10638;BME280;47007;49.252;8.904;2023-06-26T00:54:52;99647.09;;;18.79;100.00
10638;BME280;47007;49.252;8.904;2023-06-26T00:55:34;99647.66;;;18.81;100.00
10638;BME280;47007;49.252;8.904;2023-06-26T00:56:17;99659.09;;;18.88;100.00
10638;BME280;47007;49.252;8.904;2023-06-26T00:57:00;99658.28;;;18.88;100.00
10638;BME280;47007;49.252;8.904;2023-06-26T00:57:42;99652.78;;;18.83;100.00
10638;BME280;47007;49.252;8.904;2023-06-26T00:58:24;99650.94;;;18.83;100.00
10638;BME280;47007;49.252;8.904;2023-06-26T00:59:06;99665.50;;;18.87;100.00
10638;BME280;47007;49.252;8.904;2023-06-26T00:59:51;99649.88;;;18.84;100.00
10638;BME280;47007;49.252;8.904;2023-06-26T01:00:35;99646.53;;;18.77;100.00
10638;BME280;47007;49.252;8.904;2023-06-26T01:01:17;99655.94;;;18.80;100.00
10638;BME280;47007;49.252;8.904;2023-06-26T01:02:03;99643.97;;;18.71;100.00
10638;BME280;47007;49.252;8.904;2023-06-26T01:02:45;99660.66;;;18.73;100.00
10638;BME280;47007;49.252;8.904;2023-06-26T01:03:28;99644.97;;;18.64;100.00
10638;BME280;47007;49.252;8.904;2023-06-26T01:04:11;99648.78;;;18.69;100.00
10638;BME280;47007;49.252;8.904;2023-06-26T01:05:01;99650.16;;;18.71;100.00
10638;BME280;47007;49.252;8.904;2023-06-26T01:05:52;99644.97;;;18.64;100.00
10638;BME280;47007;49.252;8.904;2023-06-26T01:06:33;99651.22;;;18.70;100.00
10638;BME280;47007;49.252;8.904;2023-06-26T01:07:19;99641.69;;;18.62;100.00
10638;BME280;47007;49.252;8.904;2023-06-26T01:08:02;99646.72;;;18.59;100.00
10638;BME280;47007;49.252;8.904;2023-06-26T01:08:45;99648.13;;;18.50;100.00
10638;BME280;47007;49.252;8.904;2023-06-26T01:09:33;99641.97;;;18.38;100.00
10638;BME280;47007;49.252;8.904;2023-06-26T01:10:14;99652.72;;;18.38;100.00
10638;BME280;47007;49.252;8.904;2023-06-26T01:10:56;99651.53;;;18.34;100.00
10638;BME280;47007;49.252;8.904;2023-06-26T01:11:40;99645.28;;;18.28;100.00
10638;BME280;47007;49.252;8.904;2023-06-26T01:12:22;99645.97;;;18.23;100.00
10638;BME280;47007;49.252;8.904;2023-06-26T01:13:04;99637.97;;;18.12;100.00
10638;BME280;47007;49.252;8.904;2023-06-26T01:13:46;99641.34;;;18.07;100.00
10638;BME280;47007;49.252;8.904;2023-06-26T01:14:28;99651.03;;;18.08;100.00
10638;BME280;47007;49.252;8.904;2023-06-26T01:15:10;99641.03;;;18.04;100.00
10638;BME280;47007;49.252;8.904;2023-06-26T01:15:52;99644.41;;;17.99;100.00
10638;BME280;47007;49.252;8.904;2023-06-26T01:16:35;99590.59;;;17.66;100.00
10638;BME280;47007;49.252;8.904;2023-06-26T01:17:20;99644.16;;;18.01;100.00
10638;BME280;47007;49.252;8.904;2023-06-26T01:18:02;99650.13;;;18.03;100.00
10638;BME280;47007;49.252;8.904;2023-06-26T01:18:45;99628.78;;;17.96;100.00
10638;BME280;47007;49.252;8.904;2023-06-26T01:19:33;99631.94;;;18.05;100.00
10638;BME280;47007;49.252;8.904;2023-06-26T01:20:15;99637.03;;;18.06;100.00
10638;BME280;47007;49.252;8.904;2023-06-26T01:21:00;99639.72;;;18.06;100.00
10638;BME280;47007;49.252;8.904;2023-06-26T01:21:44;99636.56;;;18.09;100.00
10638;BME280;47007;49.252;8.904;2023-06-26T01:22:41;99641.69;;;18.11;100.00
10638;BME280;47007;49.252;8.904;2023-06-26T01:24:33;99637.81;;;18.18;100.00
10638;BME280;47007;49.252;8.904;2023-06-26T01:25:29;99637.34;;;18.21;100.00
10638;BME280;47007;49.252;8.904;2023-06-26T01:26:21;99638.41;;;18.20;100.00
10638;BME280;47007;49.252;8.904;2023-06-26T01:27:04;99622.56;;;18.07;100.00
10638;BME280;47007;49.252;8.904;2023-06-26T01:27:50;99644.81;;;18.19;100.00
10638;BME280;47007;49.252;8.904;2023-06-26T01:28:35;99638.41;;;18.20;100.00
10638;BME280;47007;49.252;8.904;2023-06-26T01:29:20;99636.41;;;18.27;100.00
10638;BME280;47007;49.252;8.904;2023-06-26T01:30:06;99631.94;;;18.33;100.00
10638;BME280;47007;49.252;8.904;2023-06-26T01:30:50;99638.72;;;18.36;100.00
10638;BME280;47007;49.252;8.904;2023-06-26T01:31:33;99639.53;;;18.36;100.00
10638;BME280;47007;49.252;8.904;2023-06-26T01:32:16;99640.13;;;18.38;100.00
10638;BME280;47007;49.252;8.904;2023-06-26T01:32:58;99635.09;;;18.42;100.00
10638;BME280;47007;49.252;8.904;2023-06-26T01:33:40;99625.88;;;18.38;100.00
10638;BME280;47007;49.252;8.904;2023-06-26T01:34:22;99633.53;;;18.46;100.00
10638;BME280;47007;49.252;8.904;2023-06-26T01:35:06;99612.47;;;18.38;100.00
10638;BME280;47007;49.252;8.904;2023-06-26T01:35:48;99621.41;;;18.43;100.00
10638;BME280;47007;49.252;8.904;2023-06-26T01:36:30;99621.69;;;18.42;100.00
10638;BME280;47007;49.252;8.904;2023-06-26T01:37:12;99629.22;;;18.45;100.00
10638;BME280;47007;49.252;8.904;2023-06-26T01:38:13;99629.56;;;18.48;100.00
10638;BME280;47007;49.252;8.904;2023-06-26T01:38:56;99628.53;;;18.49;100.00
10638;BME280;47007;49.252;8.904;2023-06-26T01:39:38;99620.59;;;18.43;100.00
10638;BME280;47007;49.252;8.904;2023-06-26T01:40:20;99619.78;;;18.42;100.00
10638;BME280;47007;49.252;8.904;2023-06-26T01:41:02;99625.66;;;18.39;100.00
10638;BME280;47007;49.252;8.904;2023-06-26T01:41:45;99622.16;;;18.39;100.00
10638;BME280;47007;49.252;8.904;2023-06-26T01:42:27;99620.03;;;18.41;100.00
10638;BME280;47007;49.252;8.904;2023-06-26T01:43:36;99615.16;;;18.38;100.00
10638;BME280;47007;49.252;8.904;2023-06-26T01:44:28;99616.91;;;18.32;100.00
10638;BME280;47007;49.252;8.904;2023-06-26T01:45:27;99630.44;;;18.37;100.00
10638;BME280;47007;49.252;8.904;2023-06-26T01:46:16;99625.19;;;18.30;100.00
10638;BME280;47007;49.252;8.904;2023-06-26T01:47:00;99627.63;;;18.32;100.00
10638;BME280;47007;49.252;8.904;2023-06-26T01:47:49;99627.56;;;18.27;100.00
10638;BME280;47007;49.252;8.904;2023-06-26T01:48:40;99621.06;;;18.11;100.00
10638;BME280;47007;49.252;8.904;2023-06-26T01:50:15;99619.69;;;17.97;100.00
10638;BME280;47007;49.252;8.904;2023-06-26T01:51:01;99624.13;;;17.91;100.00
10638;BME280;47007;49.252;8.904;2023-06-26T01:51:47;99628.91;;;17.89;100.00
10638;BME280;47007;49.252;8.904;2023-06-26T01:52:41;99617.97;;;17.79;100.00
10638;BME280;47007;49.252;8.904;2023-06-26T01:53:25;99626.09;;;17.84;100.00
10638;BME280;47007;49.252;8.904;2023-06-26T01:54:17;99623.19;;;17.86;100.00
10638;BME280;47007;49.252;8.904;2023-06-26T01:55:53;99615.03;;;17.81;100.00
10638;BME280;47007;49.252;8.904;2023-06-26T01:56:38;99621.56;;;17.85;100.00
10638;BME280;47007;49.252;8.904;2023-06-26T01:57:20;99621.91;;;17.88;100.00
10638;BME280;47007;49.252;8.904;2023-06-26T01:58:05;99622.72;;;17.89;100.00
10638;BME280;47007;49.252;8.904;2023-06-26T01:58:48;99626.56;;;17.93;100.00
10638;BME280;47007;49.252;8.904;2023-06-26T01:59:33;99625.28;;;17.95;100.00
10638;BME280;47007;49.252;8.904;2023-06-26T02:00:17;99619.31;;;17.93;100.00
10638;BME280;47007;49.252;8.904;2023-06-26T02:00:59;99616.56;;;17.88;100.00
10638;BME280;47007;49.252;8.904;2023-06-26T02:01:41;99620.28;;;17.87;100.00
10638;BME280;47007;49.252;8.904;2023-06-26T02:02:24;99629.03;;;17.83;100.00
10638;BME280;47007;49.252;8.904;2023-06-26T02:03:06;99631.38;;;17.79;100.00
10638;BME280;47007;49.252;8.904;2023-06-26T02:03:53;99625.31;;;17.72;100.00
10638;BME280;47007;49.252;8.904;2023-06-26T02:04:35;99626.59;;;17.70;100.00
10638;BME280;47007;49.252;8.904;2023-06-26T02:05:16;99615.75;;;17.65;100.00
10638;BME280;47007;49.252;8.904;2023-06-26T02:05:58;99617.97;;;17.68;100.00
10638;BME280;47007;49.252;8.904;2023-06-26T02:06:41;99620.06;;;17.77;100.00
10638;BME280;47007;49.252;8.904;2023-06-26T02:07:23;99623.34;;;17.79;100.00
10638;BME280;47007;49.252;8.904;2023-06-26T02:08:06;99615.97;;;17.75;100.00
10638;BME280;47007;49.252;8.904;2023-06-26T02:08:48;99616.91;;;17.69;100.00
10638;BME280;47007;49.252;8.904;2023-06-26T02:09:30;99602.38;;;17.65;100.00
10638;BME280;47007;49.252;8.904;2023-06-26T02:10:11;99624.94;;;17.69;100.00
10638;BME280;47007;49.252;8.904;2023-06-26T02:10:53;99615.84;;;17.58;100.00
10638;BME280;47007;49.252;8.904;2023-06-26T02:11:35;99614.34;;;17.50;100.00
10638;BME280;47007;49.252;8.904;2023-06-26T02:12:16;99623.41;;;17.49;100.00
10638;BME280;47007;49.252;8.904;2023-06-26T02:12:58;99617.59;;;17.41;100.00
10638;BME280;47007;49.252;8.904;2023-06-26T02:13:40;99619.69;;;17.39;100.00
10638;BME280;47007;49.252;8.904;2023-06-26T02:14:22;99620.59;;;17.44;100.00
10638;BME280;47007;49.252;8.904;2023-06-26T02:15:04;99619.56;;;17.45;100.00
10638;BME280;47007;49.252;8.904;2023-06-26T02:15:47;99613.63;;;17.43;100.00
10638;BME280;47007;49.252;8.904;2023-06-26T02:16:29;99627.16;;;17.48;100.00
10638;BME280;47007;49.252;8.904;2023-06-26T02:17:11;99622.84;;;17.47;100.00
10638;BME280;47007;49.252;8.904;2023-06-26T02:17:53;99629.81;;;17.48;100.00
10638;BME280;47007;49.252;8.904;2023-06-26T02:18:34;99630.88;;;17.47;100.00
10638;BME280;47007;49.252;8.904;2023-06-26T02:19:17;99626.47;;;17.41;100.00
10638;BME280;47007;49.252;8.904;2023-06-26T02:20:05;99629.00;;;17.36;100.00
10638;BME280;47007;49.252;8.904;2023-06-26T02:20:48;99629.13;;;17.30;100.00
10638;BME280;47007;49.252;8.904;2023-06-26T02:21:30;99626.75;;;17.21;100.00
10638;BME280;47007;49.252;8.904;2023-06-26T02:22:12;99638.66;;;17.26;100.00
10638;BME280;47007;49.252;8.904;2023-06-26T02:22:54;99640.28;;;17.27;100.00
10638;BME280;47007;49.252;8.904;2023-06-26T02:23:36;99625.13;;;17.20;100.00
10638;BME280;47007;49.252;8.904;2023-06-26T02:24:19;99637.16;;;17.30;100.00
10638;BME280;47007;49.252;8.904;2023-06-26T02:25:01;99622.44;;;17.20;100.00
10638;BME280;47007;49.252;8.904;2023-06-26T02:25:43;99633.06;;;17.27;100.00
10638;BME280;47007;49.252;8.904;2023-06-26T02:26:25;99623.75;;;17.18;100.00
10638;BME280;47007;49.252;8.904;2023-06-26T02:27:09;99635.03;;;17.20;100.00
10638;BME280;47007;49.252;8.904;2023-06-26T02:27:52;99623.63;;;17.13;100.00
10638;BME280;47007;49.252;8.904;2023-06-26T02:28:34;99631.53;;;17.19;100.00
10638;BME280;47007;49.252;8.904;2023-06-26T02:29:16;99632.56;;;17.18;100.00
10638;BME280;47007;49.252;8.904;2023-06-26T02:29:58;99624.06;;;17.10;100.00
10638;BME280;47007;49.252;8.904;2023-06-26T02:30:39;99615.22;;;17.09;100.00
10638;BME280;47007;49.252;8.904;2023-06-26T02:31:22;99626.88;;;17.15;100.00
10638;BME280;47007;49.252;8.904;2023-06-26T02:32:04;99620.00;;;17.19;100.00
10638;BME280;47007;49.252;8.904;2023-06-26T02:32:46;99631.22;;;17.28;100.00
10638;BME280;47007;49.252;8.904;2023-06-26T02:33:27;99620.28;;;17.29;100.00
10638;BME280;47007;49.252;8.904;2023-06-26T02:34:09;99632.72;;;17.35;100.00
10638;BME280;47007;49.252;8.904;2023-06-26T02:34:51;99630.03;;;17.35;100.00
10638;BME280;47007;49.252;8.904;2023-06-26T02:35:38;99631.31;;;17.33;100.00
10638;BME280;47007;49.252;8.904;2023-06-26T02:36:20;99617.69;;;17.34;100.00
10638;BME280;47007;49.252;8.904;2023-06-26T02:37:02;99626.78;;;17.33;100.00
10638;BME280;47007;49.252;8.904;2023-06-26T02:37:44;99609.78;;;17.28;100.00
10638;BME280;47007;49.252;8.904;2023-06-26T02:38:27;99625.28;;;17.37;100.00
10638;BME280;47007;49.252;8.904;2023-06-26T02:39:08;99628.53;;;17.39;100.00
10638;BME280;47007;49.252;8.904;2023-06-26T02:39:50;99616.66;;;17.35;100.00
10638;BME280;47007;49.252;8.904;2023-06-26T02:40:32;99627.84;;;17.44;100.00
10638;BME280;47007;49.252;8.904;2023-06-26T02:41:16;99613.50;;;17.38;100.00
10638;BME280;47007;49.252;8.904;2023-06-26T02:41:57;99624.00;;;17.40;100.00
10638;BME280;47007;49.252;8.904;2023-06-26T02:42:39;99624.59;;;17.30;100.00
10638;BME280;47007;49.252;8.904;2023-06-26T02:43:21;99622.38;;;17.27;100.00
10638;BME280;47007;49.252;8.904;2023-06-26T02:44:06;99629.94;;;17.30;100.00
10638;BME280;47007;49.252;8.904;2023-06-26T02:44:48;99624.09;;;17.33;100.00
10638;BME280;47007;49.252;8.904;2023-06-26T02:45:30;99615.81;;;17.23;100.00
10638;BME280;47007;49.252;8.904;2023-06-26T02:46:12;99620.00;;;17.19;100.00
10638;BME280;47007;49.252;8.904;2023-06-26T02:46:53;99620.25;;;17.17;100.00
10638;BME280;47007;49.252;8.904;2023-06-26T02:47:35;99618.25;;;17.13;100.00
10638;BME280;47007;49.252;8.904;2023-06-26T02:48:24;99628.97;;;17.13;100.00
10638;BME280;47007;49.252;8.904;2023-06-26T02:49:06;99629.88;;;17.07;100.00
10638;BME280;47007;49.252;8.904;2023-06-26T02:49:48;99621.97;;;17.00;100.00
10638;BME280;47007;49.252;8.904;2023-06-26T02:50:30;99625.31;;;16.96;100.00
10638;BME280;47007;49.252;8.904;2023-06-26T02:51:21;99619.03;;;16.90;100.00
10638;BME280;47007;49.252;8.904;2023-06-26T02:52:03;99623.19;;;16.86;100.00
10638;BME280;47007;49.252;8.904;2023-06-26T02:52:45;99611.56;;;16.80;100.00
10638;BME280;47007;49.252;8.904;2023-06-26T02:53:30;99617.03;;;16.85;100.00
10638;BME280;47007;49.252;8.904;2023-06-26T02:54:12;99610.28;;;16.83;100.00
10638;BME280;47007;49.252;8.904;2023-06-26T02:54:56;99610.41;;;16.88;100.00
10638;BME280;47007;49.252;8.904;2023-06-26T02:55:38;99618.59;;;16.93;100.00
10638;BME280;47007;49.252;8.904;2023-06-26T02:56:20;99607.72;;;16.88;100.00
10638;BME280;47007;49.252;8.904;2023-06-26T02:57:02;99621.97;;;17.00;100.00
10638;BME280;47007;49.252;8.904;2023-06-26T02:57:45;99603.66;;;16.97;100.00
10638;BME280;47007;49.252;8.904;2023-06-26T02:58:28;99618.72;;;17.10;100.00
10638;BME280;47007;49.252;8.904;2023-06-26T02:59:11;99620.34;;;17.11;100.00
10638;BME280;47007;49.252;8.904;2023-06-26T02:59:53;99612.31;;;17.11;100.00
10638;BME280;47007;49.252;8.904;2023-06-26T03:00:35;99615.72;;;17.18;100.00
10638;BME280;47007;49.252;8.904;2023-06-26T03:01:18;99619.91;;;17.14;100.00
10638;BME280;47007;49.252;8.904;2023-06-26T03:02:02;99622.56;;;17.14;100.00
10638;BME280;47007;49.252;8.904;2023-06-26T03:02:52;99622.09;;;17.05;100.00
10638;BME280;47007;49.252;8.904;2023-06-26T03:03:37;99633.75;;;17.11;100.00
10638;BME280;47007;49.252;8.904;2023-06-26T03:04:27;99630.94;;;17.06;100.00
10638;BME280;47007;49.252;8.904;2023-06-26T03:05:09;99624.63;;;17.00;100.00
10638;BME280;47007;49.252;8.904;2023-06-26T03:05:51;99629.66;;;17.08;100.00
10638;BME280;47007;49.252;8.904;2023-06-26T03:06:32;99630.47;;;17.09;100.00
10638;BME280;47007;49.252;8.904;2023-06-26T03:07:14;99624.19;;;17.03;100.00
10638;BME280;47007;49.252;8.904;2023-06-26T03:07:56;99633.75;;;17.11;100.00
10638;BME280;47007;49.252;8.904;2023-06-26T03:08:39;99623.47;;;17.08;100.00
10638;BME280;47007;49.252;8.904;2023-06-26T03:09:21;99637.38;;;17.16;100.00
10638;BME280;47007;49.252;8.904;2023-06-26T03:10:04;99634.22;;;17.19;100.00
10638;BME280;47007;49.252;8.904;2023-06-26T03:10:46;99628.53;;;17.16;100.00
10638;BME280;47007;49.252;8.904;2023-06-26T03:11:29;99626.44;;;17.18;100.00
10638;BME280;47007;49.252;8.904;2023-06-26T03:12:11;99638.88;;;17.24;100.00
10638;BME280;47007;49.252;8.904;2023-06-26T03:12:52;99629.22;;;17.23;100.00
10638;BME280;47007;49.252;8.904;2023-06-26T03:13:35;99622.13;;;17.17;100.00
10638;BME280;47007;49.252;8.904;2023-06-26T03:14:17;99634.13;;;17.26;100.00
10638;BME280;47007;49.252;8.904;2023-06-26T03:15:00;99641.13;;;17.27;100.00
10638;BME280;47007;49.252;8.904;2023-06-26T03:15:41;99624.78;;;17.17;100.00
10638;BME280;47007;49.252;8.904;2023-06-26T03:16:23;99643.78;;;17.27;100.00
10638;BME280;47007;49.252;8.904;2023-06-26T03:17:05;99634.94;;;17.27;100.00
10638;BME280;47007;49.252;8.904;2023-06-26T03:17:49;99638.28;;;17.22;100.00
10638;BME280;47007;49.252;8.904;2023-06-26T03:18:37;99636.81;;;17.26;100.00
10638;BME280;47007;49.252;8.904;2023-06-26T03:19:19;99639.03;;;17.29;100.00
10638;BME280;47007;49.252;8.904;2023-06-26T03:20:20;99625.13;;;17.20;100.00
10638;BME280;47007;49.252;8.904;2023-06-26T03:21:09;99642.25;;;17.31;100.00
10638;BME280;47007;49.252;8.904;2023-06-26T03:21:54;99637.97;;;17.30;100.00
10638;BME280;47007;49.252;8.904;2023-06-26T03:22:36;99637.63;;;17.27;100.00
10638;BME280;47007;49.252;8.904;2023-06-26T03:23:18;99640.41;;;17.32;100.00
10638;BME280;47007;49.252;8.904;2023-06-26T03:24:01;99647.63;;;17.31;100.00
10638;BME280;47007;49.252;8.904;2023-06-26T03:24:44;99640.28;;;17.27;100.00
10638;BME280;47007;49.252;8.904;2023-06-26T03:25:26;99634.13;;;17.26;100.00
10638;BME280;47007;49.252;8.904;2023-06-26T03:26:18;99646.84;;;17.31;100.00
10638;BME280;47007;49.252;8.904;2023-06-26T03:27:02;99650.56;;;17.30;100.00
10638;BME280;47007;49.252;8.904;2023-06-26T03:27:44;99644.38;;;17.29;100.00
10638;BME280;47007;49.252;8.904;2023-06-26T03:28:27;99642.38;;;17.24;100.00
10638;BME280;47007;49.252;8.904;2023-06-26T03:29:09;99644.38;;;17.29;100.00
10638;BME280;47007;49.252;8.904;2023-06-26T03:29:52;99646.00;;;17.30;100.00
10638;BME280;47007;49.252;8.904;2023-06-26T03:30:35;99643.34;;;17.30;100.00
10638;BME280;47007;49.252;8.904;2023-06-26T03:31:19;99632.50;;;17.25;100.00
10638;BME280;47007;49.252;8.904;2023-06-26T03:32:01;99628.41;;;17.22;100.00
10638;BME280;47007;49.252;8.904;2023-06-26T03:32:43;99632.50;;;17.25;100.00
10638;BME280;47007;49.252;8.904;2023-06-26T03:33:25;99626.31;;;17.24;100.00
10638;BME280;47007;49.252;8.904;2023-06-26T03:34:08;99650.28;;;17.31;100.00
10638;BME280;47007;49.252;8.904;2023-06-26T03:34:51;99639.94;;;17.23;100.00
10638;BME280;47007;49.252;8.904;2023-06-26T03:35:34;99646.69;;;17.26;100.00
10638;BME280;47007;49.252;8.904;2023-06-26T03:36:16;99644.22;;;17.12;100.00
10638;BME280;47007;49.252;8.904;2023-06-26T03:37:01;99644.91;;;17.08;100.00
10638;BME280;47007;49.252;8.904;2023-06-26T03:37:43;99648.38;;;16.97;100.00
10638;BME280;47007;49.252;8.904;2023-06-26T03:38:26;99655.09;;;16.87;100.00
10638;BME280;47007;49.252;8.904;2023-06-26T03:39:10;99639.69;;;16.71;100.00
10638;BME280;47007;49.252;8.904;2023-06-26T03:39:51;99650.16;;;16.73;100.00
10638;BME280;47007;49.252;8.904;2023-06-26T03:40:33;99648.19;;;16.68;100.00
10638;BME280;47007;49.252;8.904;2023-06-26T03:41:15;99647.59;;;16.66;100.00
10638;BME280;47007;49.252;8.904;2023-06-26T03:41:57;99649.78;;;16.69;100.00
10638;BME280;47007;49.252;8.904;2023-06-26T03:42:42;99635.84;;;16.67;100.00
10638;BME280;47007;49.252;8.904;2023-06-26T03:43:24;99634.53;;;16.70;100.00
10638;BME280;47007;49.252;8.904;2023-06-26T03:44:25;99641.81;;;16.81;100.00
10638;BME280;47007;49.252;8.904;2023-06-26T03:45:07;99635.66;;;16.80;100.00
10638;BME280;47007;49.252;8.904;2023-06-26T03:45:49;99629.22;;;16.81;100.00
10638;BME280;47007;49.252;8.904;2023-06-26T03:46:31;99628.19;;;16.82;100.00
10638;BME280;47007;49.252;8.904;2023-06-26T03:47:13;99627.38;;;16.82;100.00
10638;BME280;47007;49.252;8.904;2023-06-26T03:47:55;99636.09;;;16.77;100.00
10638;BME280;47007;49.252;8.904;2023-06-26T03:48:36;99638.41;;;16.74;100.00
10638;BME280;47007;49.252;8.904;2023-06-26T03:49:19;99636.09;;;16.59;100.00
10638;BME280;47007;49.252;8.904;2023-06-26T03:50:01;99632.50;;;16.53;100.00